createdAt,value
2023-03-25T00:00:16.878Z,7.77
2023-03-25T00:02:49.527Z,7.70
2023-03-25T00:05:19.295Z,7.75
2023-03-25T00:07:49.264Z,7.75
2023-03-25T00:10:16.295Z,7.66
2023-03-25T00:12:43.235Z,7.69
2023-03-25T00:15:12.355Z,7.67
2023-03-25T00:17:39.630Z,7.71
2023-03-25T00:20:11.004Z,7.77
2023-03-25T00:22:41.739Z,7.66
2023-03-25T00:25:19.472Z,7.63
2023-03-25T00:27:49.140Z,7.61
2023-03-25T00:30:17.120Z,7.52
2023-03-25T00:32:46.477Z,7.51
2023-03-25T00:35:14.118Z,7.56
2023-03-25T00:37:41.398Z,7.60
2023-03-25T00:40:09.077Z,7.63
2023-03-25T00:42:35.975Z,7.71
2023-03-25T00:45:02.977Z,7.65
2023-03-25T00:47:29.635Z,7.73
2023-03-25T00:49:56.343Z,7.65
2023-03-25T00:52:23.255Z,7.54
2023-03-25T00:54:50.167Z,7.55
2023-03-25T00:57:17.787Z,7.69
2023-03-25T00:59:44.648Z,7.82
2023-03-25T01:02:16.622Z,7.74
2023-03-25T01:04:45.846Z,7.65
2023-03-25T01:07:16.731Z,7.68
2023-03-25T01:09:46.837Z,7.64
2023-03-25T01:12:15.668Z,7.65
2023-03-25T01:14:42.904Z,7.76
2023-03-25T01:17:09.770Z,7.70
2023-03-25T01:19:36.673Z,7.60
2023-03-25T01:22:03.442Z,7.65
2023-03-25T01:24:30.096Z,7.68
2023-03-25T01:26:57.122Z,7.72
2023-03-25T01:29:23.955Z,7.66
2023-03-25T01:31:51.736Z,7.72
2023-03-25T01:34:18.566Z,7.65
2023-03-25T01:36:47.988Z,7.66
2023-03-25T01:39:18.930Z,7.63
2023-03-25T01:41:50.515Z,7.62
2023-03-25T01:44:20.841Z,7.59
2023-03-25T01:46:49.859Z,7.56
2023-03-25T01:49:24.016Z,7.61
2023-03-25T01:51:55.288Z,7.66
2023-03-25T01:54:22.364Z,7.54
2023-03-25T01:56:51.051Z,7.54
2023-03-25T01:59:20.636Z,7.39
2023-03-25T02:01:47.371Z,7.48
2023-03-25T02:04:17.059Z,7.55
2023-03-25T02:06:48.822Z,7.65
2023-03-25T02:09:18.613Z,7.55
2023-03-25T02:11:45.538Z,7.49
2023-03-25T02:14:15.621Z,7.45
2023-03-25T02:17:03.870Z,7.51
2023-03-25T02:19:33.262Z,7.52
2023-03-25T02:22:14.939Z,7.45
2023-03-25T02:24:46.098Z,7.36
2023-03-25T02:27:27.407Z,7.44
2023-03-25T02:30:42.446Z,7.45
2023-03-25T02:33:21.927Z,7.45
2023-03-25T02:36:10.527Z,7.49
2023-03-25T02:38:58.075Z,7.54
2023-03-25T02:41:38.878Z,7.56
2023-03-25T02:44:21.603Z,7.52
2023-03-25T02:46:53.920Z,7.62
2023-03-25T02:49:56.186Z,7.53
2023-03-25T02:52:33.522Z,7.54
2023-03-25T02:55:05.202Z,7.53
2023-03-25T02:57:35.544Z,7.54
2023-03-25T03:00:08.375Z,7.49
2023-03-25T03:02:35.390Z,7.56
2023-03-25T03:05:02.288Z,7.60
2023-03-25T03:07:36.617Z,7.59
2023-03-25T03:10:19.494Z,7.57
2023-03-25T03:13:01.351Z,7.59
2023-03-25T03:15:44.879Z,7.63
2023-03-25T03:18:34.528Z,7.59
2023-03-25T03:21:16.693Z,7.59
2023-03-25T03:24:04.900Z,7.61
2023-03-25T03:26:53.454Z,7.70
2023-03-25T03:29:28.150Z,7.66
2023-03-25T03:32:25.821Z,7.65
2023-03-25T03:34:57.288Z,7.63
2023-03-25T03:37:30.280Z,7.73
2023-03-25T03:39:58.323Z,7.71
2023-03-25T03:42:34.053Z,7.73
2023-03-25T03:45:07.162Z,7.70
2023-03-25T03:47:42.079Z,7.65
2023-03-25T03:50:14.474Z,7.65
2023-03-25T03:52:51.327Z,7.69
2023-03-25T03:55:29.351Z,7.62
2023-03-25T03:58:24.295Z,7.65
2023-03-25T04:01:03.249Z,7.64
2023-03-25T04:03:39.116Z,7.60
2023-03-25T04:06:18.812Z,7.53
2023-03-25T04:09:08.458Z,7.61
2023-03-25T04:11:50.490Z,7.60
2023-03-25T04:14:17.245Z,7.64
2023-03-25T04:16:46.117Z,7.56
2023-03-25T04:19:13.971Z,7.58
2023-03-25T04:21:41.752Z,7.51
2023-03-25T04:24:08.573Z,7.57
2023-03-25T04:26:37.917Z,7.53
2023-03-25T04:29:05.712Z,7.53
2023-03-25T04:31:32.564Z,7.39
2023-03-25T04:34:00.633Z,7.40
2023-03-25T04:36:33.911Z,7.29
2023-03-25T04:39:01.377Z,7.24
2023-03-25T04:41:28.930Z,7.29
2023-03-25T04:43:55.808Z,7.29
2023-03-25T04:46:22.627Z,7.26
2023-03-25T04:48:49.515Z,7.20
2023-03-25T04:51:16.297Z,7.19
2023-03-25T04:53:43.478Z,7.18
2023-03-25T04:56:16.436Z,7.20
2023-03-25T04:58:44.780Z,7.16
2023-03-25T05:01:22.048Z,7.18
2023-03-25T05:03:50.458Z,7.16
2023-03-25T05:06:18.260Z,7.15
2023-03-25T05:08:44.950Z,7.13
2023-03-25T05:11:11.775Z,7.20
2023-03-25T05:13:38.467Z,7.14
2023-03-25T05:16:05.600Z,7.07
2023-03-25T05:18:32.403Z,7.08
2023-03-25T05:21:01.026Z,6.97
2023-03-25T05:23:27.797Z,6.99
2023-03-25T05:25:56.631Z,7.01
2023-03-25T05:28:23.273Z,7.02
2023-03-25T05:30:50.070Z,6.97
2023-03-25T05:33:18.256Z,6.98
2023-03-25T05:35:46.050Z,7.00
2023-03-25T05:38:16.783Z,6.96
2023-03-25T05:40:43.668Z,6.91
2023-03-25T05:43:10.358Z,6.87
2023-03-25T05:45:37.330Z,7.00
2023-03-25T05:48:05.145Z,7.03
2023-03-25T05:50:32.115Z,7.10
2023-03-25T05:53:00.170Z,7.19
2023-03-25T05:55:27.852Z,7.24
2023-03-25T05:57:54.574Z,7.20
2023-03-25T06:00:24.776Z,7.27
2023-03-25T06:02:52.405Z,7.32
2023-03-25T06:05:23.878Z,7.24
2023-03-25T06:07:51.722Z,7.25
2023-03-25T06:10:19.393Z,7.29
2023-03-25T06:12:47.446Z,7.27
2023-03-25T06:15:18.244Z,7.22
2023-03-25T06:17:46.821Z,7.24
2023-03-25T06:20:16.655Z,7.25
2023-03-25T06:22:45.640Z,7.32
2023-03-25T06:25:19.771Z,7.52
2023-03-25T06:27:49.434Z,7.69
2023-03-25T06:30:19.364Z,7.70
2023-03-25T06:32:50.940Z,7.88
2023-03-25T06:35:20.650Z,7.92
2023-03-25T06:37:48.786Z,8.05
2023-03-25T06:40:24.483Z,8.23
2023-03-25T06:42:51.648Z,8.00
2023-03-25T06:45:38.600Z,7.87
2023-03-25T06:48:11.151Z,7.98
2023-03-25T06:50:38.001Z,7.99
2023-03-25T06:53:04.770Z,8.00
2023-03-25T06:55:31.498Z,8.05
2023-03-25T06:57:58.301Z,8.14
2023-03-25T07:00:27.072Z,8.11
2023-03-25T07:02:53.974Z,8.09
2023-03-25T07:05:21.288Z,8.18
2023-03-25T07:07:48.087Z,8.19
2023-03-25T07:10:14.867Z,8.17
2023-03-25T07:12:41.648Z,8.22
2023-03-25T07:15:08.959Z,8.30
2023-03-25T07:17:38.013Z,8.43
2023-03-25T07:20:06.249Z,8.43
2023-03-25T07:22:33.380Z,8.39
2023-03-25T07:25:00.472Z,8.37
2023-03-25T07:27:27.374Z,8.27
2023-03-25T07:30:01.681Z,8.30
2023-03-25T07:32:28.430Z,8.22
2023-03-25T07:34:55.129Z,8.36
2023-03-25T07:37:21.839Z,8.47
2023-03-25T07:39:48.472Z,8.45
2023-03-25T07:42:15.764Z,8.56
2023-03-25T07:45:12.630Z,8.79
2023-03-25T07:47:41.498Z,8.86
2023-03-25T07:50:08.742Z,8.91
2023-03-25T07:52:36.446Z,8.91
2023-03-25T07:55:03.187Z,9.03
2023-03-25T07:57:29.838Z,9.08
2023-03-25T07:59:56.610Z,9.45
2023-03-25T08:02:23.344Z,9.66
2023-03-25T08:04:50.063Z,10.07
2023-03-25T08:07:16.871Z,10.79
2023-03-25T08:09:43.600Z,10.45
2023-03-25T08:12:10.666Z,9.74
2023-03-25T08:14:37.432Z,9.78
2023-03-25T08:17:06.426Z,9.66
2023-03-25T08:19:33.809Z,9.42
2023-03-25T08:22:00.815Z,9.21
2023-03-25T08:24:30.092Z,9.05
2023-03-25T08:26:56.749Z,9.05
2023-03-25T08:29:24.880Z,9.13
2023-03-25T08:31:52.645Z,9.15
2023-03-25T08:34:21.303Z,9.21
2023-03-25T08:36:48.457Z,9.53
2023-03-25T08:39:17.554Z,9.27
2023-03-25T08:41:45.478Z,9.27
2023-03-25T08:44:12.574Z,9.16
2023-03-25T08:46:39.573Z,9.05
2023-03-25T08:49:06.798Z,8.94
2023-03-25T08:51:33.512Z,8.64
2023-03-25T08:54:01.196Z,8.11
2023-03-25T08:56:28.206Z,7.18
2023-03-25T08:58:54.937Z,7.00
2023-03-25T09:01:22.232Z,6.90
2023-03-25T09:03:49.043Z,7.02
2023-03-25T09:06:15.857Z,7.11
2023-03-25T09:08:42.701Z,6.89
2023-03-25T09:11:09.613Z,7.32
2023-03-25T09:13:36.282Z,7.49
2023-03-25T09:16:03.537Z,7.65
2023-03-25T09:18:32.169Z,7.80
2023-03-25T09:21:00.654Z,8.00
2023-03-25T09:23:27.664Z,8.03
2023-03-25T09:25:54.625Z,8.19
2023-03-25T09:28:21.461Z,8.52
2023-03-25T09:30:48.269Z,8.82
2023-03-25T09:33:14.977Z,9.11
2023-03-25T09:35:41.801Z,9.10
2023-03-25T09:38:08.600Z,9.05
2023-03-25T09:40:35.595Z,10.15
2023-03-25T09:43:17.445Z,10.93
2023-03-25T09:45:49.355Z,10.85
2023-03-25T09:48:24.611Z,11.23
2023-03-25T09:50:51.316Z,11.88
2023-03-25T09:53:27.379Z,10.86
2023-03-25T09:55:54.911Z,10.82
2023-03-25T09:58:22.173Z,10.89
2023-03-25T10:00:54.023Z,10.66
2023-03-25T10:03:28.810Z,10.28
2023-03-25T10:06:13.289Z,10.50
2023-03-25T10:09:07.509Z,10.71
2023-03-25T10:11:54.914Z,11.10
2023-03-25T10:14:44.162Z,11.83
2023-03-25T10:17:24.758Z,12.15
2023-03-25T10:20:18.950Z,11.90
2023-03-25T10:23:10.492Z,11.58
2023-03-25T10:25:41.815Z,12.05
2023-03-25T10:28:17.900Z,11.53
2023-03-25T10:30:51.461Z,11.41
2023-03-25T10:33:36.752Z,11.34
2023-03-25T10:36:06.788Z,11.66
2023-03-25T10:38:36.323Z,11.17
2023-03-25T10:41:39.310Z,11.73
2023-03-25T10:44:11.031Z,12.11
2023-03-25T10:46:47.998Z,12.29
2023-03-25T10:49:17.585Z,11.69
2023-03-25T10:51:45.410Z,12.16
2023-03-25T10:54:14.941Z,12.29
2023-03-25T10:56:48.175Z,12.62
2023-03-25T10:59:26.177Z,12.30
2023-03-25T11:01:55.215Z,12.11
2023-03-25T11:04:24.217Z,12.40
2023-03-25T11:06:58.199Z,12.39
2023-03-25T11:09:34.394Z,12.78
2023-03-25T11:12:06.683Z,12.82
2023-03-25T11:14:41.316Z,13.32
2023-03-25T11:17:15.764Z,13.45
2023-03-25T11:19:53.638Z,13.15
2023-03-25T11:22:26.201Z,12.22
2023-03-25T11:24:59.232Z,12.21
2023-03-25T11:27:28.686Z,13.16
2023-03-25T11:30:00.611Z,13.93
2023-03-25T11:32:38.552Z,13.82
2023-03-25T11:35:17.707Z,14.02
2023-03-25T11:37:59.753Z,14.15
2023-03-25T11:40:28.437Z,14.05
2023-03-25T11:43:00.498Z,13.84
2023-03-25T11:45:27.318Z,14.05
2023-03-25T11:47:58.830Z,13.68
2023-03-25T11:50:28.179Z,13.86
2023-03-25T11:53:03.016Z,13.51
2023-03-25T11:55:41.741Z,13.21
2023-03-25T11:58:16.101Z,11.94
2023-03-25T12:00:48.729Z,12.24
2023-03-25T12:03:16.600Z,12.94
2023-03-25T12:05:57.867Z,13.20
2023-03-25T12:08:24.771Z,13.55
2023-03-25T12:11:00.547Z,13.24
2023-03-25T12:13:39.472Z,13.21
2023-03-25T12:16:23.231Z,13.29
2023-03-25T12:19:19.715Z,12.98
2023-03-25T12:21:57.107Z,12.23
2023-03-25T12:24:28.541Z,12.01
2023-03-25T12:27:25.072Z,12.41
2023-03-25T12:30:19.936Z,12.36
2023-03-25T12:32:55.413Z,12.69
2023-03-25T12:35:36.621Z,13.00
2023-03-25T12:38:12.445Z,13.19
2023-03-25T12:40:48.341Z,12.82
2023-03-25T12:43:28.782Z,12.84
2023-03-25T12:46:50.412Z,13.64
2023-03-25T12:49:40.399Z,13.08
2023-03-25T12:52:50.507Z,13.40
2023-03-25T12:55:32.694Z,13.70
2023-03-25T12:58:21.239Z,13.44
2023-03-25T13:01:05.901Z,13.36
2023-03-25T13:03:35.727Z,13.39
2023-03-25T13:06:05.454Z,13.19
2023-03-25T13:08:35.942Z,13.62
2023-03-25T13:11:10.000Z,13.58
2023-03-25T13:13:38.404Z,13.52
2023-03-25T13:16:25.213Z,13.19
2023-03-25T13:19:01.966Z,12.10
2023-03-25T13:21:32.218Z,12.39
2023-03-25T13:24:21.284Z,12.19
2023-03-25T13:26:50.084Z,12.88
2023-03-25T13:29:38.169Z,12.89
2023-03-25T13:32:48.374Z,13.14
2023-03-25T13:35:35.018Z,13.33
2023-03-25T13:38:06.939Z,14.01
2023-03-25T13:40:39.475Z,13.04
2023-03-25T13:43:15.129Z,13.80
2023-03-25T13:45:51.360Z,13.72
2023-03-25T13:48:26.393Z,13.30
2023-03-25T13:50:53.344Z,13.48
2023-03-25T13:53:31.801Z,13.47
2023-03-25T13:56:07.582Z,13.32
2023-03-25T13:58:50.061Z,13.37
2023-03-25T14:01:28.740Z,13.70
2023-03-25T14:04:39.144Z,13.05
2023-03-25T14:07:29.881Z,13.57
2023-03-25T14:10:29.510Z,14.27
2023-03-25T14:13:22.679Z,13.73
2023-03-25T14:16:01.342Z,13.71
2023-03-25T14:18:32.242Z,13.56
2023-03-25T14:21:15.605Z,13.70
2023-03-25T14:23:44.557Z,13.44
2023-03-25T14:26:12.143Z,13.25
2023-03-25T14:28:41.570Z,13.29
2023-03-25T14:31:14.455Z,13.54
2023-03-25T14:33:59.780Z,14.33
2023-03-25T14:36:31.291Z,13.90
2023-03-25T14:38:59.635Z,13.59
2023-03-25T14:42:08.375Z,13.73
2023-03-25T14:44:41.321Z,13.15
2023-03-25T14:47:20.762Z,13.27
2023-03-25T14:49:56.347Z,13.13
2023-03-25T14:52:43.801Z,13.55
2023-03-25T14:55:19.398Z,13.34
2023-03-25T14:57:47.696Z,13.02
2023-03-25T15:00:29.364Z,12.94
2023-03-25T15:03:10.989Z,13.29
2023-03-25T15:05:38.849Z,13.01
2023-03-25T15:08:17.867Z,12.91
2023-03-25T15:10:49.908Z,12.83
2023-03-25T15:13:25.307Z,12.75
2023-03-25T15:15:58.083Z,12.73
2023-03-25T15:18:37.313Z,12.96
2023-03-25T15:21:11.025Z,12.61
2023-03-25T15:23:47.653Z,12.57
2023-03-25T15:26:27.196Z,12.51
2023-03-25T15:29:12.554Z,12.35
2023-03-25T15:31:58.618Z,12.49
2023-03-25T15:34:44.979Z,12.54
2023-03-25T15:37:30.438Z,12.44
2023-03-25T15:40:08.458Z,12.64
2023-03-25T15:42:38.154Z,12.59
2023-03-25T15:45:29.526Z,12.51
2023-03-25T15:48:30.659Z,12.46
2023-03-25T15:51:25.040Z,12.56
2023-03-25T15:54:13.398Z,12.51
2023-03-25T15:56:46.954Z,12.37
2023-03-25T15:59:33.642Z,12.30
2023-03-25T16:02:06.023Z,12.37
2023-03-25T16:04:39.847Z,12.41
2023-03-25T16:07:09.193Z,12.38
2023-03-25T16:09:41.704Z,12.38
2023-03-25T16:12:09.826Z,12.30
2023-03-25T16:14:39.324Z,12.32
2023-03-25T16:17:07.866Z,12.16
2023-03-25T16:19:55.682Z,12.05
2023-03-25T16:22:28.388Z,12.10
2023-03-25T16:24:58.663Z,12.02
2023-03-25T16:27:33.983Z,11.92
2023-03-25T16:30:00.951Z,11.88
2023-03-25T16:32:34.179Z,11.78
2023-03-25T16:35:01.734Z,11.71
2023-03-25T16:37:28.861Z,11.55
2023-03-25T16:39:57.673Z,11.53
2023-03-25T16:42:32.958Z,11.33
2023-03-25T16:45:00.605Z,11.11
2023-03-25T16:47:27.979Z,11.15
2023-03-25T16:49:56.403Z,11.03
2023-03-25T16:52:28.362Z,10.92
2023-03-25T16:54:55.032Z,10.85
2023-03-25T16:57:32.555Z,10.79
2023-03-25T17:00:17.671Z,10.77
2023-03-25T17:02:48.687Z,10.83
2023-03-25T17:05:25.668Z,10.81
2023-03-25T17:08:04.227Z,10.89
2023-03-25T17:10:49.703Z,10.84
2023-03-25T17:13:25.709Z,10.83
2023-03-25T17:15:53.258Z,10.77
2023-03-25T17:18:25.391Z,10.74
2023-03-25T17:20:57.905Z,10.65
2023-03-25T17:23:44.560Z,10.68
2023-03-25T17:26:13.321Z,10.72
2023-03-25T17:28:58.411Z,10.72
2023-03-25T17:31:38.175Z,10.63
2023-03-25T17:34:07.168Z,10.62
2023-03-25T17:36:36.626Z,10.58
2023-03-25T17:39:06.243Z,10.59
2023-03-25T17:41:38.595Z,10.58
2023-03-25T17:44:06.467Z,10.52
2023-03-25T17:46:35.355Z,10.50
2023-03-25T17:49:02.176Z,10.41
2023-03-25T17:51:30.787Z,10.35
2023-03-25T17:53:57.915Z,10.29
2023-03-25T17:56:27.703Z,10.31
2023-03-25T17:59:03.168Z,10.16
2023-03-25T18:01:31.485Z,10.07
2023-03-25T18:03:58.444Z,10.03
2023-03-25T18:06:25.333Z,10.08
2023-03-25T18:08:52.222Z,10.01
2023-03-25T18:11:19.511Z,10.01
2023-03-25T18:13:48.223Z,9.97
2023-03-25T18:16:21.167Z,9.97
2023-03-25T18:18:48.136Z,9.82
2023-03-25T18:21:17.120Z,9.76
2023-03-25T18:23:47.816Z,9.71
2023-03-25T18:26:18.145Z,9.72
2023-03-25T18:28:46.425Z,9.67
2023-03-25T18:31:17.597Z,9.59
2023-03-25T18:33:50.190Z,9.48
2023-03-25T18:36:17.653Z,9.47
2023-03-25T18:38:44.714Z,9.38
2023-03-25T18:41:14.505Z,9.35
2023-03-25T18:43:42.035Z,9.34
2023-03-25T18:46:14.350Z,9.36
2023-03-25T18:48:41.993Z,9.29
2023-03-25T18:51:13.264Z,9.21
2023-03-25T18:53:40.972Z,9.32
2023-03-25T18:56:08.357Z,9.17
2023-03-25T18:58:36.103Z,9.17
2023-03-25T19:01:04.839Z,9.12
2023-03-25T19:03:38.770Z,9.18
2023-03-25T19:06:11.696Z,9.14
2023-03-25T19:08:39.297Z,9.14
2023-03-25T19:11:19.220Z,9.11
2023-03-25T19:13:49.012Z,9.06
2023-03-25T19:16:16.193Z,9.01
2023-03-25T19:18:42.930Z,8.96
2023-03-25T19:21:14.080Z,8.87
2023-03-25T19:23:41.906Z,8.82
2023-03-25T19:26:08.811Z,8.81
2023-03-25T19:28:35.597Z,8.79
2023-03-25T19:31:02.350Z,8.89
2023-03-25T19:33:31.736Z,8.84
2023-03-25T19:36:01.902Z,8.82
2023-03-25T19:38:29.879Z,8.76
2023-03-25T19:41:09.329Z,8.84
2023-03-25T19:43:36.739Z,8.80
2023-03-25T19:46:05.628Z,8.81
2023-03-25T19:48:33.108Z,8.81
2023-03-25T19:50:59.944Z,8.82
2023-03-25T19:53:28.385Z,8.75
2023-03-25T19:55:55.971Z,8.78
2023-03-25T19:58:23.303Z,8.74
2023-03-25T20:00:51.421Z,8.74
2023-03-25T20:03:22.555Z,8.73
2023-03-25T20:05:56.212Z,8.72
2023-03-25T20:08:23.496Z,8.72
2023-03-25T20:10:50.468Z,8.73
2023-03-25T20:13:17.246Z,8.72
2023-03-25T20:15:44.020Z,8.67
2023-03-25T20:18:11.173Z,8.70
2023-03-25T20:20:39.658Z,8.65
2023-03-25T20:23:06.561Z,8.66
2023-03-25T20:25:33.314Z,8.66
2023-03-25T20:28:00.002Z,8.57
2023-03-25T20:30:26.825Z,8.51
2023-03-25T20:32:53.536Z,8.53
2023-03-25T20:35:21.258Z,8.53
2023-03-25T20:37:49.198Z,8.52
2023-03-25T20:40:18.280Z,8.48
2023-03-25T20:42:47.974Z,8.47
2023-03-25T20:45:16.770Z,8.45
2023-03-25T20:47:44.241Z,8.46
2023-03-25T20:50:14.652Z,8.42
2023-03-25T20:52:41.925Z,8.45
2023-03-25T20:55:10.146Z,8.42
2023-03-25T20:57:37.874Z,8.40
2023-03-25T21:00:06.155Z,8.42
2023-03-25T21:02:33.147Z,8.42
2023-03-25T21:05:02.632Z,8.44
2023-03-25T21:07:32.089Z,8.45
2023-03-25T21:09:59.333Z,8.43
2023-03-25T21:12:36.281Z,8.36
2023-03-25T21:15:09.375Z,8.35
2023-03-25T21:17:36.307Z,8.36
2023-03-25T21:20:06.410Z,8.30
2023-03-25T21:22:33.586Z,8.41
2023-03-25T21:25:00.607Z,8.46
2023-03-25T21:27:38.057Z,8.39
2023-03-25T21:30:09.914Z,8.41
2023-03-25T21:32:38.116Z,8.41
2023-03-25T21:35:05.293Z,8.41
2023-03-25T21:37:37.825Z,8.30
2023-03-25T21:40:06.048Z,8.38
2023-03-25T21:42:32.775Z,8.33
2023-03-25T21:44:59.891Z,8.39
2023-03-25T21:47:26.610Z,8.44
2023-03-25T21:49:53.322Z,8.45
2023-03-25T21:52:20.190Z,8.47
2023-03-25T21:54:48.589Z,8.48
2023-03-25T21:57:15.583Z,8.47
2023-03-25T21:59:42.290Z,8.52
2023-03-25T22:02:10.092Z,8.55
2023-03-25T22:04:37.937Z,8.54
2023-03-25T22:07:06.590Z,8.50
2023-03-25T22:09:34.617Z,8.55
2023-03-25T22:12:01.497Z,8.46
2023-03-25T22:14:28.174Z,8.43
2023-03-25T22:16:54.917Z,8.50
2023-03-25T22:19:24.093Z,8.48
2023-03-25T22:21:51.449Z,8.42
2023-03-25T22:24:18.276Z,8.45
2023-03-25T22:26:44.913Z,8.40
2023-03-25T22:29:11.682Z,8.40
2023-03-25T22:31:43.019Z,8.41
2023-03-25T22:34:15.739Z,8.44
2023-03-25T22:36:49.866Z,8.52
2023-03-25T22:39:19.036Z,8.43
2023-03-25T22:41:46.259Z,8.40
2023-03-25T22:44:17.171Z,8.33
2023-03-25T22:46:48.112Z,8.32
2023-03-25T22:49:15.591Z,8.36
2023-03-25T22:51:42.730Z,8.29
2023-03-25T22:54:12.572Z,8.37
2023-03-25T22:56:39.985Z,8.34
2023-03-25T22:59:08.004Z,8.26
2023-03-25T23:01:36.037Z,8.26
2023-03-25T23:04:03.167Z,8.28
2023-03-25T23:06:31.689Z,8.26
2023-03-25T23:08:58.554Z,8.27
2023-03-25T23:11:28.870Z,8.27
2023-03-25T23:14:02.483Z,8.17
2023-03-25T23:16:31.176Z,8.15
2023-03-25T23:18:58.428Z,8.13
2023-03-25T23:21:28.701Z,8.15
2023-03-25T23:23:58.323Z,8.09
2023-03-25T23:26:27.924Z,8.04
2023-03-25T23:29:00.695Z,8.07
2023-03-25T23:31:34.289Z,8.08
2023-03-25T23:34:05.570Z,8.09
2023-03-25T23:36:34.492Z,8.11
2023-03-25T23:39:02.540Z,8.06
2023-03-25T23:41:29.910Z,8.00
2023-03-25T23:43:56.882Z,7.93
2023-03-25T23:46:26.466Z,7.90
2023-03-25T23:49:02.718Z,7.90
2023-03-25T23:51:33.334Z,7.80
2023-03-25T23:54:00.159Z,7.78
2023-03-25T23:56:26.884Z,7.83
2023-03-25T23:58:53.918Z,7.84
